sensor_id;sensor_type;location;lat;lon;timestamp;P1;durP1;ratioP1;P2;durP2;ratioP2
23416;SDS011;11881;42.432;25.632;2024-01-25T00:01:21;21.47;;;12.37;;
23416;SDS011;11881;42.432;25.632;2024-01-25T00:03:47;21.90;;;12.97;;
23416;SDS011;11881;42.432;25.632;2024-01-25T00:06:13;27.03;;;12.20;;
23416;SDS011;11881;42.432;25.632;2024-01-25T00:08:38;21.40;;;12.63;;
23416;SDS011;11881;42.432;25.632;2024-01-25T00:11:04;22.43;;;12.00;;
23416;SDS011;11881;42.432;25.632;2024-01-25T00:13:30;22.67;;;12.37;;
23416;SDS011;11881;42.432;25.632;2024-01-25T00:15:55;24.67;;;13.47;;
23416;SDS011;11881;42.432;25.632;2024-01-25T00:18:21;24.40;;;13.10;;
23416;SDS011;11881;42.432;25.632;2024-01-25T00:20:46;20.07;;;12.33;;
23416;SDS011;11881;42.432;25.632;2024-01-25T00:23:12;20.13;;;12.00;;
23416;SDS011;11881;42.432;25.632;2024-01-25T00:25:37;19.60;;;11.80;;
23416;SDS011;11881;42.432;25.632;2024-01-25T00:28:03;19.80;;;11.87;;
23416;SDS011;11881;42.432;25.632;2024-01-25T00:30:29;18.60;;;11.90;;
23416;SDS011;11881;42.432;25.632;2024-01-25T00:32:57;22.77;;;12.33;;
23416;SDS011;11881;42.432;25.632;2024-01-25T00:35:26;22.30;;;12.70;;
23416;SDS011;11881;42.432;25.632;2024-01-25T00:37:52;20.33;;;12.40;;
23416;SDS011;11881;42.432;25.632;2024-01-25T00:40:18;22.07;;;13.03;;
23416;SDS011;11881;42.432;25.632;2024-01-25T00:42:44;24.60;;;13.17;;
23416;SDS011;11881;42.432;25.632;2024-01-25T00:45:18;20.83;;;12.90;;
23416;SDS011;11881;42.432;25.632;2024-01-25T00:47:44;27.40;;;13.53;;
23416;SDS011;11881;42.432;25.632;2024-01-25T00:50:10;22.77;;;14.10;;
23416;SDS011;11881;42.432;25.632;2024-01-25T00:52:36;28.70;;;14.93;;
23416;SDS011;11881;42.432;25.632;2024-01-25T00:55:03;25.40;;;14.20;;
23416;SDS011;11881;42.432;25.632;2024-01-25T00:57:29;25.73;;;15.47;;
23416;SDS011;11881;42.432;25.632;2024-01-25T00:59:54;30.37;;;16.23;;
23416;SDS011;11881;42.432;25.632;2024-01-25T01:02:21;29.63;;;16.00;;
23416;SDS011;11881;42.432;25.632;2024-01-25T01:04:47;25.77;;;14.77;;
23416;SDS011;11881;42.432;25.632;2024-01-25T01:07:13;30.07;;;15.97;;
23416;SDS011;11881;42.432;25.632;2024-01-25T01:09:40;27.20;;;15.50;;
23416;SDS011;11881;42.432;25.632;2024-01-25T01:12:06;23.40;;;13.87;;
23416;SDS011;11881;42.432;25.632;2024-01-25T01:14:32;25.43;;;13.80;;
23416;SDS011;11881;42.432;25.632;2024-01-25T01:16:58;27.40;;;15.23;;
23416;SDS011;11881;42.432;25.632;2024-01-25T01:19:23;25.13;;;14.13;;
23416;SDS011;11881;42.432;25.632;2024-01-25T01:21:49;28.50;;;13.73;;
23416;SDS011;11881;42.432;25.632;2024-01-25T01:24:14;23.43;;;14.30;;
23416;SDS011;11881;42.432;25.632;2024-01-25T01:26:40;23.20;;;14.03;;
23416;SDS011;11881;42.432;25.632;2024-01-25T01:29:07;27.33;;;12.70;;
23416;SDS011;11881;42.432;25.632;2024-01-25T01:31:33;23.67;;;12.90;;
23416;SDS011;11881;42.432;25.632;2024-01-25T01:33:59;22.37;;;12.50;;
23416;SDS011;11881;42.432;25.632;2024-01-25T01:36:25;17.87;;;10.67;;
23416;SDS011;11881;42.432;25.632;2024-01-25T01:38:51;16.97;;;10.20;;
23416;SDS011;11881;42.432;25.632;2024-01-25T01:41:16;14.80;;;9.63;;
23416;SDS011;11881;42.432;25.632;2024-01-25T01:43:42;16.63;;;9.20;;
23416;SDS011;11881;42.432;25.632;2024-01-25T01:46:09;14.43;;;8.83;;
23416;SDS011;11881;42.432;25.632;2024-01-25T01:48:40;14.87;;;8.73;;
23416;SDS011;11881;42.432;25.632;2024-01-25T01:51:06;14.00;;;8.70;;
23416;SDS011;11881;42.432;25.632;2024-01-25T01:53:32;17.07;;;9.17;;
23416;SDS011;11881;42.432;25.632;2024-01-25T01:55:59;16.73;;;8.20;;
23416;SDS011;11881;42.432;25.632;2024-01-25T01:58:25;15.87;;;9.40;;
23416;SDS011;11881;42.432;25.632;2024-01-25T02:00:53;17.40;;;8.93;;
23416;SDS011;11881;42.432;25.632;2024-01-25T02:03:20;17.27;;;10.13;;
23416;SDS011;11881;42.432;25.632;2024-01-25T02:05:46;15.20;;;9.20;;
23416;SDS011;11881;42.432;25.632;2024-01-25T02:08:12;16.70;;;9.40;;
23416;SDS011;11881;42.432;25.632;2024-01-25T02:10:38;15.80;;;9.27;;
23416;SDS011;11881;42.432;25.632;2024-01-25T02:13:03;12.30;;;7.50;;
23416;SDS011;11881;42.432;25.632;2024-01-25T02:15:29;15.90;;;8.60;;
23416;SDS011;11881;42.432;25.632;2024-01-25T02:17:54;16.33;;;8.13;;
23416;SDS011;11881;42.432;25.632;2024-01-25T02:20:21;13.87;;;7.27;;
23416;SDS011;11881;42.432;25.632;2024-01-25T02:22:47;11.67;;;7.43;;
23416;SDS011;11881;42.432;25.632;2024-01-25T02:25:12;12.57;;;7.57;;
23416;SDS011;11881;42.432;25.632;2024-01-25T02:27:37;13.23;;;7.30;;
23416;SDS011;11881;42.432;25.632;2024-01-25T02:30:07;18.00;;;9.00;;
23416;SDS011;11881;42.432;25.632;2024-01-25T02:32:32;18.57;;;9.47;;
23416;SDS011;11881;42.432;25.632;2024-01-25T02:34:58;16.50;;;9.27;;
23416;SDS011;11881;42.432;25.632;2024-01-25T02:37:23;15.80;;;9.10;;
23416;SDS011;11881;42.432;25.632;2024-01-25T02:39:49;15.93;;;8.87;;
23416;SDS011;11881;42.432;25.632;2024-01-25T02:42:16;14.80;;;7.80;;
23416;SDS011;11881;42.432;25.632;2024-01-25T02:44:42;13.90;;;7.50;;
23416;SDS011;11881;42.432;25.632;2024-01-25T02:47:08;14.20;;;8.10;;
23416;SDS011;11881;42.432;25.632;2024-01-25T02:49:33;13.93;;;8.03;;
23416;SDS011;11881;42.432;25.632;2024-01-25T02:51:59;13.90;;;8.63;;
23416;SDS011;11881;42.432;25.632;2024-01-25T02:54:24;16.13;;;9.00;;
23416;SDS011;11881;42.432;25.632;2024-01-25T02:56:50;13.17;;;7.93;;
23416;SDS011;11881;42.432;25.632;2024-01-25T02:59:15;16.47;;;8.37;;
23416;SDS011;11881;42.432;25.632;2024-01-25T03:01:41;13.83;;;8.30;;
23416;SDS011;11881;42.432;25.632;2024-01-25T03:04:07;14.30;;;8.17;;
23416;SDS011;11881;42.432;25.632;2024-01-25T03:06:33;14.40;;;8.70;;
23416;SDS011;11881;42.432;25.632;2024-01-25T03:08:58;14.87;;;8.77;;
23416;SDS011;11881;42.432;25.632;2024-01-25T03:11:24;12.30;;;8.17;;
23416;SDS011;11881;42.432;25.632;2024-01-25T03:13:50;14.63;;;7.80;;
23416;SDS011;11881;42.432;25.632;2024-01-25T03:16:15;13.50;;;7.73;;
23416;SDS011;11881;42.432;25.632;2024-01-25T03:18:41;13.20;;;7.63;;
23416;SDS011;11881;42.432;25.632;2024-01-25T03:21:07;12.23;;;7.83;;
23416;SDS011;11881;42.432;25.632;2024-01-25T03:23:32;15.00;;;8.27;;
23416;SDS011;11881;42.432;25.632;2024-01-25T03:25:58;13.97;;;8.73;;
23416;SDS011;11881;42.432;25.632;2024-01-25T03:28:23;20.33;;;10.60;;
23416;SDS011;11881;42.432;25.632;2024-01-25T03:30:49;16.23;;;10.03;;
23416;SDS011;11881;42.432;25.632;2024-01-25T03:33:14;19.50;;;10.67;;
23416;SDS011;11881;42.432;25.632;2024-01-25T03:35:40;17.83;;;10.30;;
23416;SDS011;11881;42.432;25.632;2024-01-25T03:38:05;14.63;;;10.10;;
23416;SDS011;11881;42.432;25.632;2024-01-25T03:40:31;18.17;;;10.47;;
23416;SDS011;11881;42.432;25.632;2024-01-25T03:42:57;18.80;;;10.87;;
23416;SDS011;11881;42.432;25.632;2024-01-25T03:45:22;20.53;;;11.87;;
23416;SDS011;11881;42.432;25.632;2024-01-25T03:47:48;22.27;;;11.73;;
23416;SDS011;11881;42.432;25.632;2024-01-25T03:50:13;19.47;;;12.07;;
23416;SDS011;11881;42.432;25.632;2024-01-25T03:52:39;19.97;;;12.80;;
23416;SDS011;11881;42.432;25.632;2024-01-25T03:55:04;25.57;;;12.93;;
23416;SDS011;11881;42.432;25.632;2024-01-25T03:57:30;21.90;;;12.20;;
23416;SDS011;11881;42.432;25.632;2024-01-25T03:59:56;18.53;;;10.70;;
23416;SDS011;11881;42.432;25.632;2024-01-25T04:02:21;14.33;;;8.93;;
23416;SDS011;11881;42.432;25.632;2024-01-25T04:04:46;17.03;;;9.70;;
23416;SDS011;11881;42.432;25.632;2024-01-25T04:07:12;18.97;;;10.83;;
23416;SDS011;11881;42.432;25.632;2024-01-25T04:09:38;17.53;;;10.00;;
23416;SDS011;11881;42.432;25.632;2024-01-25T04:12:03;14.80;;;8.77;;
23416;SDS011;11881;42.432;25.632;2024-01-25T04:14:29;15.70;;;8.17;;
23416;SDS011;11881;42.432;25.632;2024-01-25T04:16:54;16.60;;;6.57;;
23416;SDS011;11881;42.432;25.632;2024-01-25T04:19:20;12.83;;;6.70;;
23416;SDS011;11881;42.432;25.632;2024-01-25T04:21:45;12.60;;;7.57;;
23416;SDS011;11881;42.432;25.632;2024-01-25T04:24:11;16.27;;;7.70;;
23416;SDS011;11881;42.432;25.632;2024-01-25T04:26:36;13.60;;;7.77;;
23416;SDS011;11881;42.432;25.632;2024-01-25T04:29:02;14.10;;;8.57;;
23416;SDS011;11881;42.432;25.632;2024-01-25T04:31:27;15.17;;;8.87;;
23416;SDS011;11881;42.432;25.632;2024-01-25T04:33:53;14.40;;;8.90;;
23416;SDS011;11881;42.432;25.632;2024-01-25T04:36:18;16.37;;;9.30;;
23416;SDS011;11881;42.432;25.632;2024-01-25T04:38:44;15.87;;;9.17;;
23416;SDS011;11881;42.432;25.632;2024-01-25T04:41:09;16.93;;;9.57;;
23416;SDS011;11881;42.432;25.632;2024-01-25T04:43:35;15.10;;;9.17;;
23416;SDS011;11881;42.432;25.632;2024-01-25T04:46:01;15.80;;;9.40;;
23416;SDS011;11881;42.432;25.632;2024-01-25T04:48:28;14.53;;;9.13;;
23416;SDS011;11881;42.432;25.632;2024-01-25T04:50:53;16.20;;;9.93;;
23416;SDS011;11881;42.432;25.632;2024-01-25T04:53:19;20.47;;;9.53;;
23416;SDS011;11881;42.432;25.632;2024-01-25T04:55:44;21.40;;;10.50;;
23416;SDS011;11881;42.432;25.632;2024-01-25T04:58:10;16.13;;;9.93;;
23416;SDS011;11881;42.432;25.632;2024-01-25T05:00:36;16.50;;;9.50;;
23416;SDS011;11881;42.432;25.632;2024-01-25T05:03:03;18.23;;;10.37;;
23416;SDS011;11881;42.432;25.632;2024-01-25T05:05:29;17.17;;;10.60;;
23416;SDS011;11881;42.432;25.632;2024-01-25T05:07:54;17.13;;;10.43;;
23416;SDS011;11881;42.432;25.632;2024-01-25T05:10:20;19.87;;;11.23;;
23416;SDS011;11881;42.432;25.632;2024-01-25T05:12:46;17.40;;;11.20;;
23416;SDS011;11881;42.432;25.632;2024-01-25T05:15:11;22.10;;;12.50;;
23416;SDS011;11881;42.432;25.632;2024-01-25T05:17:37;20.50;;;12.17;;
23416;SDS011;11881;42.432;25.632;2024-01-25T05:20:02;22.70;;;12.97;;
23416;SDS011;11881;42.432;25.632;2024-01-25T05:22:28;24.40;;;13.00;;
23416;SDS011;11881;42.432;25.632;2024-01-25T05:24:54;26.67;;;12.97;;
23416;SDS011;11881;42.432;25.632;2024-01-25T05:27:19;21.37;;;12.90;;
23416;SDS011;11881;42.432;25.632;2024-01-25T05:29:44;26.17;;;14.13;;
23416;SDS011;11881;42.432;25.632;2024-01-25T05:32:10;27.47;;;14.00;;
23416;SDS011;11881;42.432;25.632;2024-01-25T05:34:35;25.33;;;13.97;;
23416;SDS011;11881;42.432;25.632;2024-01-25T05:37:01;26.40;;;14.40;;
23416;SDS011;11881;42.432;25.632;2024-01-25T05:39:26;24.20;;;14.80;;
23416;SDS011;11881;42.432;25.632;2024-01-25T05:41:52;27.57;;;14.90;;
23416;SDS011;11881;42.432;25.632;2024-01-25T05:44:17;24.93;;;14.13;;
23416;SDS011;11881;42.432;25.632;2024-01-25T05:46:43;26.10;;;15.03;;
23416;SDS011;11881;42.432;25.632;2024-01-25T05:49:08;30.23;;;14.50;;
23416;SDS011;11881;42.432;25.632;2024-01-25T05:51:34;24.07;;;13.70;;
23416;SDS011;11881;42.432;25.632;2024-01-25T05:54:01;23.53;;;14.90;;
23416;SDS011;11881;42.432;25.632;2024-01-25T05:56:26;31.23;;;16.20;;
23416;SDS011;11881;42.432;25.632;2024-01-25T05:58:52;30.00;;;15.87;;
23416;SDS011;11881;42.432;25.632;2024-01-25T06:01:17;32.20;;;18.00;;
23416;SDS011;11881;42.432;25.632;2024-01-25T06:03:44;29.17;;;14.90;;
23416;SDS011;11881;42.432;25.632;2024-01-25T06:06:09;27.87;;;14.77;;
23416;SDS011;11881;42.432;25.632;2024-01-25T06:08:35;28.33;;;15.50;;
23416;SDS011;11881;42.432;25.632;2024-01-25T06:11:00;27.60;;;16.03;;
23416;SDS011;11881;42.432;25.632;2024-01-25T06:13:26;31.67;;;16.40;;
23416;SDS011;11881;42.432;25.632;2024-01-25T06:15:51;29.07;;;16.37;;
23416;SDS011;11881;42.432;25.632;2024-01-25T06:18:17;28.47;;;15.60;;
23416;SDS011;11881;42.432;25.632;2024-01-25T06:20:42;39.00;;;18.30;;
23416;SDS011;11881;42.432;25.632;2024-01-25T06:23:09;42.30;;;24.20;;
23416;SDS011;11881;42.432;25.632;2024-01-25T06:25:34;50.37;;;26.90;;
23416;SDS011;11881;42.432;25.632;2024-01-25T06:28:01;58.53;;;28.27;;
23416;SDS011;11881;42.432;25.632;2024-01-25T06:30:28;50.20;;;26.03;;
23416;SDS011;11881;42.432;25.632;2024-01-25T06:32:54;51.63;;;25.67;;
23416;SDS011;11881;42.432;25.632;2024-01-25T06:35:19;49.90;;;26.23;;
23416;SDS011;11881;42.432;25.632;2024-01-25T06:37:45;48.90;;;25.97;;
23416;SDS011;11881;42.432;25.632;2024-01-25T06:40:11;58.50;;;25.77;;
23416;SDS011;11881;42.432;25.632;2024-01-25T06:42:36;40.87;;;22.97;;
23416;SDS011;11881;42.432;25.632;2024-01-25T06:45:02;34.07;;;20.40;;
23416;SDS011;11881;42.432;25.632;2024-01-25T06:47:28;32.20;;;18.70;;
23416;SDS011;11881;42.432;25.632;2024-01-25T06:49:54;37.23;;;20.50;;
23416;SDS011;11881;42.432;25.632;2024-01-25T06:52:19;33.80;;;20.17;;
23416;SDS011;11881;42.432;25.632;2024-01-25T06:54:45;40.87;;;21.97;;
23416;SDS011;11881;42.432;25.632;2024-01-25T06:57:11;47.33;;;24.10;;
23416;SDS011;11881;42.432;25.632;2024-01-25T06:59:36;41.53;;;24.13;;
23416;SDS011;11881;42.432;25.632;2024-01-25T07:02:02;41.17;;;23.40;;
23416;SDS011;11881;42.432;25.632;2024-01-25T07:04:28;55.67;;;27.03;;
23416;SDS011;11881;42.432;25.632;2024-01-25T07:06:54;45.80;;;27.93;;
23416;SDS011;11881;42.432;25.632;2024-01-25T07:09:20;49.47;;;28.13;;
23416;SDS011;11881;42.432;25.632;2024-01-25T07:11:46;50.53;;;29.30;;
23416;SDS011;11881;42.432;25.632;2024-01-25T07:14:11;82.20;;;49.03;;
23416;SDS011;11881;42.432;25.632;2024-01-25T07:16:37;63.33;;;37.23;;
23416;SDS011;11881;42.432;25.632;2024-01-25T07:19:03;57.27;;;28.03;;
23416;SDS011;11881;42.432;25.632;2024-01-25T07:21:28;46.97;;;26.10;;
23416;SDS011;11881;42.432;25.632;2024-01-25T07:23:58;47.63;;;24.23;;
23416;SDS011;11881;42.432;25.632;2024-01-25T07:26:26;39.50;;;21.80;;
23416;SDS011;11881;42.432;25.632;2024-01-25T07:28:51;38.43;;;21.57;;
23416;SDS011;11881;42.432;25.632;2024-01-25T07:31:23;35.20;;;19.70;;
23416;SDS011;11881;42.432;25.632;2024-01-25T07:33:51;32.47;;;19.57;;
23416;SDS011;11881;42.432;25.632;2024-01-25T07:36:17;34.13;;;19.90;;
23416;SDS011;11881;42.432;25.632;2024-01-25T07:38:43;34.77;;;20.57;;
23416;SDS011;11881;42.432;25.632;2024-01-25T07:41:11;34.20;;;19.83;;
23416;SDS011;11881;42.432;25.632;2024-01-25T07:43:37;29.70;;;19.77;;
23416;SDS011;11881;42.432;25.632;2024-01-25T07:46:03;36.27;;;20.20;;
23416;SDS011;11881;42.432;25.632;2024-01-25T07:48:28;31.80;;;19.80;;
23416;SDS011;11881;42.432;25.632;2024-01-25T07:50:54;32.37;;;19.33;;
23416;SDS011;11881;42.432;25.632;2024-01-25T07:53:19;31.77;;;19.63;;
23416;SDS011;11881;42.432;25.632;2024-01-25T07:55:45;40.37;;;20.00;;
23416;SDS011;11881;42.432;25.632;2024-01-25T07:58:10;41.83;;;24.70;;
23416;SDS011;11881;42.432;25.632;2024-01-25T08:00:36;41.37;;;23.57;;
23416;SDS011;11881;42.432;25.632;2024-01-25T08:03:02;42.77;;;21.37;;
23416;SDS011;11881;42.432;25.632;2024-01-25T08:05:28;36.70;;;20.80;;
23416;SDS011;11881;42.432;25.632;2024-01-25T08:07:53;38.07;;;21.03;;
23416;SDS011;11881;42.432;25.632;2024-01-25T08:10:19;37.63;;;21.23;;
23416;SDS011;11881;42.432;25.632;2024-01-25T08:12:44;36.77;;;21.37;;
23416;SDS011;11881;42.432;25.632;2024-01-25T08:15:12;40.07;;;24.70;;
23416;SDS011;11881;42.432;25.632;2024-01-25T08:17:38;42.17;;;25.30;;
23416;SDS011;11881;42.432;25.632;2024-01-25T08:20:04;49.93;;;26.13;;
23416;SDS011;11881;42.432;25.632;2024-01-25T08:22:31;54.67;;;29.63;;
23416;SDS011;11881;42.432;25.632;2024-01-25T08:24:57;56.60;;;29.73;;
23416;SDS011;11881;42.432;25.632;2024-01-25T08:27:23;70.47;;;29.53;;
23416;SDS011;11881;42.432;25.632;2024-01-25T08:29:49;69.60;;;30.00;;
23416;SDS011;11881;42.432;25.632;2024-01-25T08:32:14;66.30;;;28.93;;
23416;SDS011;11881;42.432;25.632;2024-01-25T08:34:40;59.27;;;28.27;;
23416;SDS011;11881;42.432;25.632;2024-01-25T08:37:05;68.90;;;29.23;;
23416;SDS011;11881;42.432;25.632;2024-01-25T08:39:31;67.93;;;30.20;;
23416;SDS011;11881;42.432;25.632;2024-01-25T08:41:56;69.97;;;28.40;;
23416;SDS011;11881;42.432;25.632;2024-01-25T08:44:25;62.27;;;26.67;;
23416;SDS011;11881;42.432;25.632;2024-01-25T08:46:51;38.60;;;20.57;;
23416;SDS011;11881;42.432;25.632;2024-01-25T08:49:16;29.97;;;17.23;;
23416;SDS011;11881;42.432;25.632;2024-01-25T08:51:42;26.20;;;15.10;;
23416;SDS011;11881;42.432;25.632;2024-01-25T08:54:07;26.97;;;14.67;;
23416;SDS011;11881;42.432;25.632;2024-01-25T08:56:34;26.87;;;14.23;;
23416;SDS011;11881;42.432;25.632;2024-01-25T08:58:59;28.40;;;14.67;;
23416;SDS011;11881;42.432;25.632;2024-01-25T09:01:25;29.13;;;15.33;;
23416;SDS011;11881;42.432;25.632;2024-01-25T09:03:50;24.97;;;15.00;;
23416;SDS011;11881;42.432;25.632;2024-01-25T09:06:17;29.07;;;15.83;;
23416;SDS011;11881;42.432;25.632;2024-01-25T09:08:43;26.47;;;15.20;;
23416;SDS011;11881;42.432;25.632;2024-01-25T09:11:08;24.00;;;14.90;;
23416;SDS011;11881;42.432;25.632;2024-01-25T09:13:34;24.27;;;16.37;;
23416;SDS011;11881;42.432;25.632;2024-01-25T09:15:59;31.87;;;17.00;;
23416;SDS011;11881;42.432;25.632;2024-01-25T09:18:24;28.60;;;17.63;;
23416;SDS011;11881;42.432;25.632;2024-01-25T09:20:50;23.33;;;14.90;;
23416;SDS011;11881;42.432;25.632;2024-01-25T09:23:16;20.23;;;13.60;;
23416;SDS011;11881;42.432;25.632;2024-01-25T09:25:42;21.63;;;11.77;;
23416;SDS011;11881;42.432;25.632;2024-01-25T09:28:08;25.33;;;11.43;;
23416;SDS011;11881;42.432;25.632;2024-01-25T09:30:33;22.33;;;10.23;;
23416;SDS011;11881;42.432;25.632;2024-01-25T09:32:59;26.17;;;10.93;;
23416;SDS011;11881;42.432;25.632;2024-01-25T09:35:24;17.23;;;8.53;;
23416;SDS011;11881;42.432;25.632;2024-01-25T09:37:50;9.60;;;1.70;;
23416;SDS011;11881;42.432;25.632;2024-01-25T09:40:18;3.87;;;1.20;;
23416;SDS011;11881;42.432;25.632;2024-01-25T09:42:46;3.80;;;1.30;;
23416;SDS011;11881;42.432;25.632;2024-01-25T09:45:16;8.73;;;0.90;;
23416;SDS011;11881;42.432;25.632;2024-01-25T09:47:42;4.40;;;1.10;;
23416;SDS011;11881;42.432;25.632;2024-01-25T09:50:09;5.90;;;0.90;;
23416;SDS011;11881;42.432;25.632;2024-01-25T09:52:34;5.93;;;1.00;;
23416;SDS011;11881;42.432;25.632;2024-01-25T09:55:01;7.70;;;1.00;;
23416;SDS011;11881;42.432;25.632;2024-01-25T09:57:27;3.43;;;1.10;;
23416;SDS011;11881;42.432;25.632;2024-01-25T09:59:55;3.17;;;1.00;;
23416;SDS011;11881;42.432;25.632;2024-01-25T10:02:21;2.27;;;1.10;;
23416;SDS011;11881;42.432;25.632;2024-01-25T10:04:50;6.93;;;0.77;;
23416;SDS011;11881;42.432;25.632;2024-01-25T10:10:03;12.80;;;1.63;;
23416;SDS011;11881;42.432;25.632;2024-01-25T10:12:30;5.27;;;1.13;;
23416;SDS011;11881;42.432;25.632;2024-01-25T10:14:56;4.53;;;0.93;;
23416;SDS011;11881;42.432;25.632;2024-01-25T10:17:22;6.60;;;0.90;;
23416;SDS011;11881;42.432;25.632;2024-01-25T10:19:47;7.93;;;0.90;;
23416;SDS011;11881;42.432;25.632;2024-01-25T10:22:13;3.30;;;1.17;;
23416;SDS011;11881;42.432;25.632;2024-01-25T10:24:39;3.60;;;0.93;;
23416;SDS011;11881;42.432;25.632;2024-01-25T10:27:05;4.53;;;0.80;;
23416;SDS011;11881;42.432;25.632;2024-01-25T10:29:32;5.33;;;0.63;;
23416;SDS011;11881;42.432;25.632;2024-01-25T10:31:59;5.80;;;1.20;;
23416;SDS011;11881;42.432;25.632;2024-01-25T10:34:26;9.87;;;1.00;;
23416;SDS011;11881;42.432;25.632;2024-01-25T10:36:53;13.27;;;0.90;;
23416;SDS011;11881;42.432;25.632;2024-01-25T10:39:21;3.33;;;0.80;;
23416;SDS011;11881;42.432;25.632;2024-01-25T10:41:47;5.47;;;0.80;;
23416;SDS011;11881;42.432;25.632;2024-01-25T10:44:15;2.57;;;0.70;;
23416;SDS011;11881;42.432;25.632;2024-01-25T10:46:47;3.67;;;1.30;;
23416;SDS011;11881;42.432;25.632;2024-01-25T10:49:13;7.40;;;1.00;;
23416;SDS011;11881;42.432;25.632;2024-01-25T10:51:42;3.83;;;0.77;;
23416;SDS011;11881;42.432;25.632;2024-01-25T10:54:09;2.80;;;0.90;;
23416;SDS011;11881;42.432;25.632;2024-01-25T10:56:36;5.77;;;0.90;;
23416;SDS011;11881;42.432;25.632;2024-01-25T10:59:02;4.67;;;0.90;;
23416;SDS011;11881;42.432;25.632;2024-01-25T11:01:28;7.67;;;1.07;;
23416;SDS011;11881;42.432;25.632;2024-01-25T11:03:54;6.13;;;0.80;;
23416;SDS011;11881;42.432;25.632;2024-01-25T11:06:22;6.67;;;0.67;;
23416;SDS011;11881;42.432;25.632;2024-01-25T11:08:48;6.20;;;1.10;;
23416;SDS011;11881;42.432;25.632;2024-01-25T11:11:14;11.77;;;1.10;;
23416;SDS011;11881;42.432;25.632;2024-01-25T11:13:40;5.30;;;1.00;;
23416;SDS011;11881;42.432;25.632;2024-01-25T11:16:17;4.90;;;0.80;;
23416;SDS011;11881;42.432;25.632;2024-01-25T11:18:50;2.67;;;0.80;;
23416;SDS011;11881;42.432;25.632;2024-01-25T11:23:59;3.77;;;0.80;;
23416;SDS011;11881;42.432;25.632;2024-01-25T11:26:28;6.17;;;0.70;;
23416;SDS011;11881;42.432;25.632;2024-01-25T11:28:54;6.40;;;0.80;;
23416;SDS011;11881;42.432;25.632;2024-01-25T11:31:21;6.73;;;0.80;;
23416;SDS011;11881;42.432;25.632;2024-01-25T11:33:47;6.80;;;1.00;;
23416;SDS011;11881;42.432;25.632;2024-01-25T11:36:13;5.03;;;0.90;;
23416;SDS011;11881;42.432;25.632;2024-01-25T11:38:39;2.97;;;0.80;;
23416;SDS011;11881;42.432;25.632;2024-01-25T11:41:04;6.53;;;0.90;;
23416;SDS011;11881;42.432;25.632;2024-01-25T11:43:30;8.10;;;0.87;;
23416;SDS011;11881;42.432;25.632;2024-01-25T11:45:55;5.77;;;1.00;;
23416;SDS011;11881;42.432;25.632;2024-01-25T11:48:21;4.63;;;0.80;;
23416;SDS011;11881;42.432;25.632;2024-01-25T11:50:46;3.70;;;1.10;;
23416;SDS011;11881;42.432;25.632;2024-01-25T11:53:12;6.57;;;1.00;;
23416;SDS011;11881;42.432;25.632;2024-01-25T11:55:37;7.03;;;1.10;;
23416;SDS011;11881;42.432;25.632;2024-01-25T11:58:03;4.37;;;1.20;;
23416;SDS011;11881;42.432;25.632;2024-01-25T12:00:29;2.23;;;0.80;;
23416;SDS011;11881;42.432;25.632;2024-01-25T12:02:54;5.57;;;1.20;;
23416;SDS011;11881;42.432;25.632;2024-01-25T12:05:20;7.43;;;1.43;;
23416;SDS011;11881;42.432;25.632;2024-01-25T12:07:47;3.97;;;0.83;;
23416;SDS011;11881;42.432;25.632;2024-01-25T12:10:15;3.67;;;1.00;;
23416;SDS011;11881;42.432;25.632;2024-01-25T12:12:42;3.90;;;0.67;;
23416;SDS011;11881;42.432;25.632;2024-01-25T12:15:08;4.10;;;0.80;;
23416;SDS011;11881;42.432;25.632;2024-01-25T12:17:33;1.83;;;0.83;;
23416;SDS011;11881;42.432;25.632;2024-01-25T12:20:04;4.47;;;0.70;;
23416;SDS011;11881;42.432;25.632;2024-01-25T12:22:35;4.17;;;0.80;;
23416;SDS011;11881;42.432;25.632;2024-01-25T12:25:02;6.23;;;0.90;;
23416;SDS011;11881;42.432;25.632;2024-01-25T12:27:33;3.93;;;0.80;;
23416;SDS011;11881;42.432;25.632;2024-01-25T12:29:58;3.27;;;0.80;;
23416;SDS011;11881;42.432;25.632;2024-01-25T12:32:24;6.80;;;1.63;;
23416;SDS011;11881;42.432;25.632;2024-01-25T12:34:55;7.07;;;0.90;;
23416;SDS011;11881;42.432;25.632;2024-01-25T12:37:22;3.60;;;0.67;;
23416;SDS011;11881;42.432;25.632;2024-01-25T12:39:48;2.87;;;0.70;;
23416;SDS011;11881;42.432;25.632;2024-01-25T12:42:18;3.27;;;0.80;;
23416;SDS011;11881;42.432;25.632;2024-01-25T12:44:43;6.83;;;0.80;;
23416;SDS011;11881;42.432;25.632;2024-01-25T12:47:10;3.13;;;0.70;;
23416;SDS011;11881;42.432;25.632;2024-01-25T12:49:39;3.17;;;0.73;;
23416;SDS011;11881;42.432;25.632;2024-01-25T12:52:08;5.37;;;0.80;;
23416;SDS011;11881;42.432;25.632;2024-01-25T12:54:37;3.37;;;1.00;;
23416;SDS011;11881;42.432;25.632;2024-01-25T12:57:04;3.50;;;1.00;;
23416;SDS011;11881;42.432;25.632;2024-01-25T12:59:30;4.83;;;0.87;;
23416;SDS011;11881;42.432;25.632;2024-01-25T13:01:57;3.23;;;0.90;;
23416;SDS011;11881;42.432;25.632;2024-01-25T13:04:23;2.97;;;0.80;;
23416;SDS011;11881;42.432;25.632;2024-01-25T13:06:48;4.53;;;0.73;;
23416;SDS011;11881;42.432;25.632;2024-01-25T13:09:14;5.23;;;0.67;;
23416;SDS011;11881;42.432;25.632;2024-01-25T13:11:41;2.00;;;1.00;;
23416;SDS011;11881;42.432;25.632;2024-01-25T13:14:06;3.17;;;0.80;;
23416;SDS011;11881;42.432;25.632;2024-01-25T13:16:32;2.13;;;0.70;;
23416;SDS011;11881;42.432;25.632;2024-01-25T13:18:58;3.97;;;0.80;;
23416;SDS011;11881;42.432;25.632;2024-01-25T13:21:23;4.53;;;1.00;;
23416;SDS011;11881;42.432;25.632;2024-01-25T13:23:49;6.93;;;1.33;;
23416;SDS011;11881;42.432;25.632;2024-01-25T13:26:14;4.13;;;0.90;;
23416;SDS011;11881;42.432;25.632;2024-01-25T13:28:40;5.50;;;1.20;;
23416;SDS011;11881;42.432;25.632;2024-01-25T13:31:05;7.63;;;1.37;;
23416;SDS011;11881;42.432;25.632;2024-01-25T13:33:31;6.33;;;0.90;;
23416;SDS011;11881;42.432;25.632;2024-01-25T13:35:56;4.87;;;0.93;;
23416;SDS011;11881;42.432;25.632;2024-01-25T13:38:22;8.23;;;1.03;;
23416;SDS011;11881;42.432;25.632;2024-01-25T13:40:47;3.13;;;0.90;;
23416;SDS011;11881;42.432;25.632;2024-01-25T13:43:14;5.30;;;1.20;;
23416;SDS011;11881;42.432;25.632;2024-01-25T13:45:39;2.70;;;1.00;;
23416;SDS011;11881;42.432;25.632;2024-01-25T13:48:05;6.23;;;1.43;;
23416;SDS011;11881;42.432;25.632;2024-01-25T13:50:30;6.67;;;1.10;;
23416;SDS011;11881;42.432;25.632;2024-01-25T13:52:56;5.77;;;1.20;;
23416;SDS011;11881;42.432;25.632;2024-01-25T13:55:21;5.17;;;1.13;;
23416;SDS011;11881;42.432;25.632;2024-01-25T13:57:47;2.77;;;1.40;;
23416;SDS011;11881;42.432;25.632;2024-01-25T14:00:12;5.17;;;1.40;;
23416;SDS011;11881;42.432;25.632;2024-01-25T14:02:39;7.87;;;1.50;;
23416;SDS011;11881;42.432;25.632;2024-01-25T14:05:07;3.47;;;1.10;;
23416;SDS011;11881;42.432;25.632;2024-01-25T14:07:33;5.87;;;1.23;;
23416;SDS011;11881;42.432;25.632;2024-01-25T14:09:58;5.20;;;1.10;;
23416;SDS011;11881;42.432;25.632;2024-01-25T14:12:24;4.60;;;0.90;;
23416;SDS011;11881;42.432;25.632;2024-01-25T14:14:49;4.23;;;0.90;;
23416;SDS011;11881;42.432;25.632;2024-01-25T14:17:15;3.10;;;0.80;;